Portada
METAR-TAF:

METAR-TAF

Aeroports :

Funchal, Madeira, Portugal

latitud: 32-41-52N, longitud: 016-46-28W, altitud: 59 m

Observació

L'informe es va fer fa 18 minuts, a les 08:30 UTC
Vent 15 kt del Nord/Nord-Est
Temperatura 25°C
Humitat 57%
Pressió 1018 hPa
Visibilitat 10 km o més
Escasses núvols a una alçada de 1500 ft

METAR: LPMA 240830Z 02015KT 9999 FEW015 25/16 Q1018

Hora: 09:48 (08:48 UTC)

Pronòstic

L'informe es va fer fa 3 hores i 48 minuts, a les 05:00 UTC
Pronòstic vàlid del 24 a les 06 UTC al 25 a les 06 UTC
Vent 13 kt del Nord
Visibilitat 10 km o més
Núvols disperses a una alçada de 1300 ft
Temporalment
l' 24 a les 06 UTC al 25 a les 06 UTC
Vent 20 kt del Nord amb ràfegues de 30 kt

TAF: LPMA 240500Z 2406/2506 01013KT 9999 SCT013 TEMPO 2406/2506 01020G30KT

Observacions i pronòstics meteorològics de més de 4000 aeroports (METAR i TAF).

Les estacions disponibles són els punts grocs i vermells al mapa.

Posi el ratolí al punt desitjat per veure el nom de l'estació.

Feu clic per veure les observacions i els pronòstics meteorològics.

Per canviar el mapa: feu clic els botons verds amb una creu de color negre per apropar; al botó verd amb un guió per allunyar la imatge; o en les fletxes verdes per a mapes adjacents.


METAR-TAF: